sensor_id;sensor_type;location;lat;lon;timestamp;temperature;humidity
15543;DHT22;7873;52.230;12.856;2023-04-15T00:00:36;26.90;35.30
15543;DHT22;7873;52.230;12.856;2023-04-15T00:03:03;26.90;35.40
15543;DHT22;7873;52.230;12.856;2023-04-15T00:05:30;26.60;35.80
15543;DHT22;7873;52.230;12.856;2023-04-15T00:07:58;26.70;35.70
15543;DHT22;7873;52.230;12.856;2023-04-15T00:10:26;26.70;35.60
15543;DHT22;7873;52.230;12.856;2023-04-15T00:12:53;26.50;36.10
15543;DHT22;7873;52.230;12.856;2023-04-15T00:15:19;26.10;36.70
15543;DHT22;7873;52.230;12.856;2023-04-15T00:17:48;26.00;37.20
15543;DHT22;7873;52.230;12.856;2023-04-15T00:20:16;26.00;36.90
15543;DHT22;7873;52.230;12.856;2023-04-15T00:22:42;26.30;36.50
15543;DHT22;7873;52.230;12.856;2023-04-15T00:25:10;26.30;36.20
15543;DHT22;7873;52.230;12.856;2023-04-15T00:27:37;26.30;36.40
15543;DHT22;7873;52.230;12.856;2023-04-15T00:30:05;26.20;36.60
15543;DHT22;7873;52.230;12.856;2023-04-15T00:32:32;26.10;36.70
15543;DHT22;7873;52.230;12.856;2023-04-15T00:34:59;26.00;37.10
15543;DHT22;7873;52.230;12.856;2023-04-15T00:37:26;26.00;37.10
15543;DHT22;7873;52.230;12.856;2023-04-15T00:39:53;26.00;37.20
15543;DHT22;7873;52.230;12.856;2023-04-15T00:42:21;26.00;36.90
15543;DHT22;7873;52.230;12.856;2023-04-15T00:44:48;26.00;36.90
15543;DHT22;7873;52.230;12.856;2023-04-15T00:47:15;25.90;37.20
15543;DHT22;7873;52.230;12.856;2023-04-15T00:49:42;25.90;37.30
15543;DHT22;7873;52.230;12.856;2023-04-15T00:52:09;26.20;36.80
15543;DHT22;7873;52.230;12.856;2023-04-15T00:54:35;26.30;36.60
15543;DHT22;7873;52.230;12.856;2023-04-15T00:57:04;26.20;36.60
15543;DHT22;7873;52.230;12.856;2023-04-15T00:59:32;26.20;36.80
15543;DHT22;7873;52.230;12.856;2023-04-15T01:01:59;26.30;36.50
15543;DHT22;7873;52.230;12.856;2023-04-15T01:04:26;26.30;36.50
15543;DHT22;7873;52.230;12.856;2023-04-15T01:06:53;26.30;36.30
15543;DHT22;7873;52.230;12.856;2023-04-15T01:09:20;26.40;36.30
15543;DHT22;7873;52.230;12.856;2023-04-15T01:11:47;26.30;36.40
15543;DHT22;7873;52.230;12.856;2023-04-15T01:14:13;26.30;36.40
15543;DHT22;7873;52.230;12.856;2023-04-15T01:16:41;26.20;36.40
15543;DHT22;7873;52.230;12.856;2023-04-15T01:19:09;26.20;36.40
15543;DHT22;7873;52.230;12.856;2023-04-15T01:21:36;26.20;36.40
15543;DHT22;7873;52.230;12.856;2023-04-15T01:24:04;26.20;36.40
15543;DHT22;7873;52.230;12.856;2023-04-15T01:26:36;26.10;36.50
15543;DHT22;7873;52.230;12.856;2023-04-15T01:29:03;26.10;36.50
15543;DHT22;7873;52.230;12.856;2023-04-15T01:31:31;26.10;36.50
15543;DHT22;7873;52.230;12.856;2023-04-15T01:33:58;26.10;36.60
15543;DHT22;7873;52.230;12.856;2023-04-15T01:36:25;26.10;36.60
15543;DHT22;7873;52.230;12.856;2023-04-15T01:38:52;26.00;36.60
15543;DHT22;7873;52.230;12.856;2023-04-15T01:41:20;26.00;36.60
15543;DHT22;7873;52.230;12.856;2023-04-15T01:43:49;26.00;36.50
15543;DHT22;7873;52.230;12.856;2023-04-15T01:46:16;26.10;36.40
15543;DHT22;7873;52.230;12.856;2023-04-15T01:48:43;26.00;36.50
15543;DHT22;7873;52.230;12.856;2023-04-15T01:51:10;25.90;36.70
15543;DHT22;7873;52.230;12.856;2023-04-15T01:53:37;26.00;36.70
15543;DHT22;7873;52.230;12.856;2023-04-15T01:56:04;26.00;36.60
15543;DHT22;7873;52.230;12.856;2023-04-15T01:58:31;25.90;36.60
15543;DHT22;7873;52.230;12.856;2023-04-15T02:00:59;25.90;36.70
15543;DHT22;7873;52.230;12.856;2023-04-15T02:03:27;25.80;36.80
15543;DHT22;7873;52.230;12.856;2023-04-15T02:05:54;25.80;36.80
15543;DHT22;7873;52.230;12.856;2023-04-15T02:08:21;25.80;36.70
15543;DHT22;7873;52.230;12.856;2023-04-15T02:10:47;25.80;36.80
15543;DHT22;7873;52.230;12.856;2023-04-15T02:13:14;25.80;36.80
15543;DHT22;7873;52.230;12.856;2023-04-15T02:15:45;25.70;36.80
15543;DHT22;7873;52.230;12.856;2023-04-15T02:18:14;25.70;36.80
15543;DHT22;7873;52.230;12.856;2023-04-15T02:20:40;25.70;36.90
15543;DHT22;7873;52.230;12.856;2023-04-15T02:23:08;25.70;37.00
15543;DHT22;7873;52.230;12.856;2023-04-15T02:25:35;25.70;36.90
15543;DHT22;7873;52.230;12.856;2023-04-15T02:28:03;25.70;36.90
15543;DHT22;7873;52.230;12.856;2023-04-15T02:30:30;25.60;36.90
15543;DHT22;7873;52.230;12.856;2023-04-15T02:32:57;25.60;37.00
15543;DHT22;7873;52.230;12.856;2023-04-15T02:35:27;25.50;37.00
15543;DHT22;7873;52.230;12.856;2023-04-15T02:37:54;25.50;36.90
15543;DHT22;7873;52.230;12.856;2023-04-15T02:40:20;25.60;37.10
15543;DHT22;7873;52.230;12.856;2023-04-15T02:42:47;25.30;37.60
15543;DHT22;7873;52.230;12.856;2023-04-15T02:45:14;25.40;37.40
15543;DHT22;7873;52.230;12.856;2023-04-15T02:47:42;25.50;37.20
15543;DHT22;7873;52.230;12.856;2023-04-15T02:50:10;25.50;37.10
15543;DHT22;7873;52.230;12.856;2023-04-15T02:52:40;25.50;37.20
15543;DHT22;7873;52.230;12.856;2023-04-15T02:55:09;25.50;37.30
15543;DHT22;7873;52.230;12.856;2023-04-15T02:57:36;25.40;37.20
15543;DHT22;7873;52.230;12.856;2023-04-15T03:00:03;25.40;37.30
15543;DHT22;7873;52.230;12.856;2023-04-15T03:02:33;25.30;37.30
15543;DHT22;7873;52.230;12.856;2023-04-15T03:05:01;25.30;37.40
15543;DHT22;7873;52.230;12.856;2023-04-15T03:07:28;25.30;37.40
15543;DHT22;7873;52.230;12.856;2023-04-15T03:09:56;25.30;37.30
15543;DHT22;7873;52.230;12.856;2023-04-15T03:12:23;25.20;37.40
15543;DHT22;7873;52.230;12.856;2023-04-15T03:14:49;25.20;37.40
15543;DHT22;7873;52.230;12.856;2023-04-15T03:17:16;25.20;37.40
15543;DHT22;7873;52.230;12.856;2023-04-15T03:19:43;25.20;37.30
15543;DHT22;7873;52.230;12.856;2023-04-15T03:22:09;25.20;37.40
15543;DHT22;7873;52.230;12.856;2023-04-15T03:24:36;25.20;37.50
15543;DHT22;7873;52.230;12.856;2023-04-15T03:27:04;25.20;37.40
15543;DHT22;7873;52.230;12.856;2023-04-15T03:29:32;25.10;37.50
15543;DHT22;7873;52.230;12.856;2023-04-15T03:31:59;25.10;37.60
15543;DHT22;7873;52.230;12.856;2023-04-15T03:34:26;25.00;37.70
15543;DHT22;7873;52.230;12.856;2023-04-15T03:36:52;24.90;37.80
15543;DHT22;7873;52.230;12.856;2023-04-15T03:39:19;25.00;37.80
15543;DHT22;7873;52.230;12.856;2023-04-15T03:41:46;24.60;38.60
15543;DHT22;7873;52.230;12.856;2023-04-15T03:44:13;24.50;38.80
15543;DHT22;7873;52.230;12.856;2023-04-15T03:46:40;24.40;39.10
15543;DHT22;7873;52.230;12.856;2023-04-15T03:49:07;24.30;39.40
15543;DHT22;7873;52.230;12.856;2023-04-15T03:51:34;24.50;38.90
15543;DHT22;7873;52.230;12.856;2023-04-15T03:54:01;24.40;39.00
15543;DHT22;7873;52.230;12.856;2023-04-15T03:56:27;24.30;39.50
15543;DHT22;7873;52.230;12.856;2023-04-15T03:58:54;24.10;39.70
15543;DHT22;7873;52.230;12.856;2023-04-15T04:01:22;24.10;39.80
15543;DHT22;7873;52.230;12.856;2023-04-15T04:03:49;24.20;39.70
15543;DHT22;7873;52.230;12.856;2023-04-15T04:06:16;24.30;39.50
15543;DHT22;7873;52.230;12.856;2023-04-15T04:08:43;24.30;39.40
15543;DHT22;7873;52.230;12.856;2023-04-15T04:11:09;24.50;39.20
15543;DHT22;7873;52.230;12.856;2023-04-15T04:13:36;24.50;39.10
15543;DHT22;7873;52.230;12.856;2023-04-15T04:16:03;24.50;39.10
15543;DHT22;7873;52.230;12.856;2023-04-15T04:18:31;24.60;39.00
15543;DHT22;7873;52.230;12.856;2023-04-15T04:20:58;24.70;38.90
15543;DHT22;7873;52.230;12.856;2023-04-15T04:23:25;24.50;39.20
15543;DHT22;7873;52.230;12.856;2023-04-15T04:25:52;24.40;39.70
15543;DHT22;7873;52.230;12.856;2023-04-15T04:28:18;24.50;39.40
15543;DHT22;7873;52.230;12.856;2023-04-15T04:30:45;24.60;39.50
15543;DHT22;7873;52.230;12.856;2023-04-15T04:33:12;24.80;39.60
15543;DHT22;7873;52.230;12.856;2023-04-15T04:35:40;24.60;39.30
15543;DHT22;7873;52.230;12.856;2023-04-15T04:38:07;24.50;39.60
15543;DHT22;7873;52.230;12.856;2023-04-15T04:40:33;24.50;39.40
15543;DHT22;7873;52.230;12.856;2023-04-15T04:43:00;24.50;39.40
15543;DHT22;7873;52.230;12.856;2023-04-15T04:45:27;24.50;39.50
15543;DHT22;7873;52.230;12.856;2023-04-15T04:47:54;24.40;39.60
15543;DHT22;7873;52.230;12.856;2023-04-15T04:50:21;24.40;39.90
15543;DHT22;7873;52.230;12.856;2023-04-15T04:52:49;24.30;40.10
15543;DHT22;7873;52.230;12.856;2023-04-15T04:55:16;24.10;40.20
15543;DHT22;7873;52.230;12.856;2023-04-15T04:57:42;24.20;40.30
15543;DHT22;7873;52.230;12.856;2023-04-15T05:00:09;24.10;40.40
15543;DHT22;7873;52.230;12.856;2023-04-15T05:02:37;24.10;40.40
15543;DHT22;7873;52.230;12.856;2023-04-15T05:05:03;24.10;40.30
15543;DHT22;7873;52.230;12.856;2023-04-15T05:07:31;24.10;40.40
15543;DHT22;7873;52.230;12.856;2023-04-15T05:09:59;24.10;40.50
15543;DHT22;7873;52.230;12.856;2023-04-15T05:12:26;24.10;40.40
15543;DHT22;7873;52.230;12.856;2023-04-15T05:14:52;24.10;40.40
15543;DHT22;7873;52.230;12.856;2023-04-15T05:17:19;24.20;40.20
15543;DHT22;7873;52.230;12.856;2023-04-15T05:19:46;24.10;40.30
15543;DHT22;7873;52.230;12.856;2023-04-15T05:22:13;24.30;40.00
15543;DHT22;7873;52.230;12.856;2023-04-15T05:24:39;24.40;39.90
15543;DHT22;7873;52.230;12.856;2023-04-15T05:27:08;24.20;40.30
15543;DHT22;7873;52.230;12.856;2023-04-15T05:29:35;24.10;40.60
15543;DHT22;7873;52.230;12.856;2023-04-15T05:32:02;24.00;40.80
15543;DHT22;7873;52.230;12.856;2023-04-15T05:34:29;24.00;40.80
15543;DHT22;7873;52.230;12.856;2023-04-15T05:36:55;24.00;40.80
15543;DHT22;7873;52.230;12.856;2023-04-15T05:39:22;23.90;40.90
15543;DHT22;7873;52.230;12.856;2023-04-15T05:41:49;23.90;40.70
15543;DHT22;7873;52.230;12.856;2023-04-15T05:44:17;24.00;40.40
15543;DHT22;7873;52.230;12.856;2023-04-15T05:46:44;24.20;40.30
15543;DHT22;7873;52.230;12.856;2023-04-15T05:49:10;24.30;40.20
15543;DHT22;7873;52.230;12.856;2023-04-15T05:51:37;24.40;39.60
15543;DHT22;7873;52.230;12.856;2023-04-15T05:54:04;24.50;40.20
15543;DHT22;7873;52.230;12.856;2023-04-15T05:56:31;24.60;39.50
15543;DHT22;7873;52.230;12.856;2023-04-15T05:58:57;24.60;39.70
15543;DHT22;7873;52.230;12.856;2023-04-15T06:01:25;24.60;39.10
15543;DHT22;7873;52.230;12.856;2023-04-15T06:03:52;24.50;39.20
15543;DHT22;7873;52.230;12.856;2023-04-15T06:06:19;24.40;39.80
15543;DHT22;7873;52.230;12.856;2023-04-15T06:08:46;24.50;40.20
15543;DHT22;7873;52.230;12.856;2023-04-15T06:11:12;24.40;39.60
15543;DHT22;7873;52.230;12.856;2023-04-15T06:13:39;24.40;39.60
15543;DHT22;7873;52.230;12.856;2023-04-15T06:16:06;24.40;39.80
15543;DHT22;7873;52.230;12.856;2023-04-15T06:18:34;24.40;39.90
15543;DHT22;7873;52.230;12.856;2023-04-15T06:21:01;24.20;39.90
15543;DHT22;7873;52.230;12.856;2023-04-15T06:23:28;23.90;40.60
15543;DHT22;7873;52.230;12.856;2023-04-15T06:25:54;23.80;40.70
15543;DHT22;7873;52.230;12.856;2023-04-15T06:28:21;23.70;41.00
15543;DHT22;7873;52.230;12.856;2023-04-15T06:30:48;23.80;41.10
15543;DHT22;7873;52.230;12.856;2023-04-15T06:33:15;24.00;40.80
15543;DHT22;7873;52.230;12.856;2023-04-15T06:35:43;24.10;40.70
15543;DHT22;7873;52.230;12.856;2023-04-15T06:38:09;24.20;40.20
15543;DHT22;7873;52.230;12.856;2023-04-15T06:40:36;24.30;39.80
15543;DHT22;7873;52.230;12.856;2023-04-15T06:43:03;24.20;40.00
15543;DHT22;7873;52.230;12.856;2023-04-15T06:45:30;24.20;40.70
15543;DHT22;7873;52.230;12.856;2023-04-15T06:47:56;24.10;40.30
15543;DHT22;7873;52.230;12.856;2023-04-15T06:50:23;24.10;40.00
15543;DHT22;7873;52.230;12.856;2023-04-15T06:52:51;24.00;40.40
15543;DHT22;7873;52.230;12.856;2023-04-15T06:55:18;23.90;40.70
15543;DHT22;7873;52.230;12.856;2023-04-15T06:57:45;23.80;40.40
15543;DHT22;7873;52.230;12.856;2023-04-15T07:00:12;23.50;40.90
15543;DHT22;7873;52.230;12.856;2023-04-15T07:02:39;23.40;41.10
15543;DHT22;7873;52.230;12.856;2023-04-15T07:05:06;23.30;41.00
15543;DHT22;7873;52.230;12.856;2023-04-15T07:07:34;23.30;41.10
15543;DHT22;7873;52.230;12.856;2023-04-15T07:10:03;23.30;41.70
15543;DHT22;7873;52.230;12.856;2023-04-15T07:12:30;23.00;41.90
15543;DHT22;7873;52.230;12.856;2023-04-15T07:14:57;23.00;42.00
15543;DHT22;7873;52.230;12.856;2023-04-15T07:17:23;23.00;41.70
15543;DHT22;7873;52.230;12.856;2023-04-15T07:19:50;23.10;41.60
15543;DHT22;7873;52.230;12.856;2023-04-15T07:22:16;23.10;41.60
15543;DHT22;7873;52.230;12.856;2023-04-15T07:24:43;23.10;41.60
15543;DHT22;7873;52.230;12.856;2023-04-15T07:27:11;23.10;41.50
15543;DHT22;7873;52.230;12.856;2023-04-15T07:29:38;23.10;41.50
15543;DHT22;7873;52.230;12.856;2023-04-15T07:32:04;23.10;41.60
15543;DHT22;7873;52.230;12.856;2023-04-15T07:34:31;23.10;41.60
15543;DHT22;7873;52.230;12.856;2023-04-15T07:36:58;23.10;41.60
15543;DHT22;7873;52.230;12.856;2023-04-15T07:39:24;23.20;41.30
15543;DHT22;7873;52.230;12.856;2023-04-15T07:41:51;23.50;40.40
15543;DHT22;7873;52.230;12.856;2023-04-15T07:44:19;23.70;40.00
15543;DHT22;7873;52.230;12.856;2023-04-15T07:46:46;23.80;40.00
15543;DHT22;7873;52.230;12.856;2023-04-15T07:49:13;23.90;40.00
15543;DHT22;7873;52.230;12.856;2023-04-15T07:51:39;23.90;40.00
15543;DHT22;7873;52.230;12.856;2023-04-15T07:54:06;24.00;40.00
15543;DHT22;7873;52.230;12.856;2023-04-15T07:56:33;23.90;40.20
15543;DHT22;7873;52.230;12.856;2023-04-15T07:59:00;23.80;40.60
15543;DHT22;7873;52.230;12.856;2023-04-15T08:01:30;23.50;41.30
15543;DHT22;7873;52.230;12.856;2023-04-15T08:03:58;23.60;41.60
15543;DHT22;7873;52.230;12.856;2023-04-15T08:06:24;23.70;41.10
15543;DHT22;7873;52.230;12.856;2023-04-15T08:08:51;23.50;40.90
15543;DHT22;7873;52.230;12.856;2023-04-15T08:11:18;23.60;40.70
15543;DHT22;7873;52.230;12.856;2023-04-15T08:13:45;23.70;40.60
15543;DHT22;7873;52.230;12.856;2023-04-15T08:16:13;23.80;40.20
15543;DHT22;7873;52.230;12.856;2023-04-15T08:18:44;23.80;40.00
15543;DHT22;7873;52.230;12.856;2023-04-15T08:21:11;23.80;40.30
15543;DHT22;7873;52.230;12.856;2023-04-15T08:23:38;23.60;40.40
15543;DHT22;7873;52.230;12.856;2023-04-15T08:26:05;23.60;40.80
15543;DHT22;7873;52.230;12.856;2023-04-15T08:28:32;23.60;40.40
15543;DHT22;7873;52.230;12.856;2023-04-15T08:30:59;23.70;40.30
15543;DHT22;7873;52.230;12.856;2023-04-15T08:33:26;23.60;40.30
15543;DHT22;7873;52.230;12.856;2023-04-15T08:35:55;23.60;40.40
15543;DHT22;7873;52.230;12.856;2023-04-15T08:38:22;23.50;40.70
15543;DHT22;7873;52.230;12.856;2023-04-15T08:40:48;23.50;40.80
15543;DHT22;7873;52.230;12.856;2023-04-15T08:43:17;23.60;40.90
15543;DHT22;7873;52.230;12.856;2023-04-15T08:45:49;23.20;42.30
15543;DHT22;7873;52.230;12.856;2023-04-15T08:48:17;23.20;42.40
15543;DHT22;7873;52.230;12.856;2023-04-15T08:50:44;23.20;42.00
15543;DHT22;7873;52.230;12.856;2023-04-15T08:53:13;23.40;41.60
15543;DHT22;7873;52.230;12.856;2023-04-15T08:55:41;23.50;41.00
15543;DHT22;7873;52.230;12.856;2023-04-15T08:58:10;23.60;40.70
15543;DHT22;7873;52.230;12.856;2023-04-15T09:00:37;23.60;41.90
15543;DHT22;7873;52.230;12.856;2023-04-15T09:03:05;23.70;40.70
15543;DHT22;7873;52.230;12.856;2023-04-15T09:05:32;23.90;40.80
15543;DHT22;7873;52.230;12.856;2023-04-15T09:07:59;23.90;40.20
15543;DHT22;7873;52.230;12.856;2023-04-15T09:10:27;24.00;40.40
15543;DHT22;7873;52.230;12.856;2023-04-15T09:12:54;23.60;43.50
15543;DHT22;7873;52.230;12.856;2023-04-15T09:15:21;23.50;43.90
15543;DHT22;7873;52.230;12.856;2023-04-15T09:17:50;23.20;44.20
15543;DHT22;7873;52.230;12.856;2023-04-15T09:20:16;23.30;44.80
15543;DHT22;7873;52.230;12.856;2023-04-15T09:22:45;23.40;43.50
15543;DHT22;7873;52.230;12.856;2023-04-15T09:25:27;23.50;43.60
15543;DHT22;7873;52.230;12.856;2023-04-15T09:27:56;23.80;43.80
15543;DHT22;7873;52.230;12.856;2023-04-15T09:30:23;23.80;42.30
15543;DHT22;7873;52.230;12.856;2023-04-15T09:32:51;23.80;43.40
15543;DHT22;7873;52.230;12.856;2023-04-15T09:35:18;23.70;44.20
15543;DHT22;7873;52.230;12.856;2023-04-15T09:37:46;23.60;44.70
15543;DHT22;7873;52.230;12.856;2023-04-15T09:40:13;23.60;44.60
15543;DHT22;7873;52.230;12.856;2023-04-15T09:42:54;23.80;43.80
15543;DHT22;7873;52.230;12.856;2023-04-15T09:45:21;23.80;44.30
15543;DHT22;7873;52.230;12.856;2023-04-15T09:47:48;23.90;45.70
15543;DHT22;7873;52.230;12.856;2023-04-15T09:50:17;24.10;43.60
15543;DHT22;7873;52.230;12.856;2023-04-15T09:52:44;24.00;43.90
15543;DHT22;7873;52.230;12.856;2023-04-15T09:55:12;24.10;44.00
15543;DHT22;7873;52.230;12.856;2023-04-15T09:57:40;24.20;43.10
15543;DHT22;7873;52.230;12.856;2023-04-15T10:00:10;24.30;43.70
15543;DHT22;7873;52.230;12.856;2023-04-15T10:02:38;24.30;43.20
15543;DHT22;7873;52.230;12.856;2023-04-15T10:05:06;24.20;43.20
15543;DHT22;7873;52.230;12.856;2023-04-15T10:07:36;24.20;43.40
15543;DHT22;7873;52.230;12.856;2023-04-15T10:10:05;24.30;43.60
15543;DHT22;7873;52.230;12.856;2023-04-15T10:12:33;24.30;43.30
15543;DHT22;7873;52.230;12.856;2023-04-15T10:15:03;24.30;43.10
15543;DHT22;7873;52.230;12.856;2023-04-15T10:17:32;24.20;42.50
15543;DHT22;7873;52.230;12.856;2023-04-15T10:20:02;24.10;41.40
15543;DHT22;7873;52.230;12.856;2023-04-15T10:22:30;23.90;41.90
15543;DHT22;7873;52.230;12.856;2023-04-15T10:24:58;23.90;42.60
15543;DHT22;7873;52.230;12.856;2023-04-15T10:27:25;23.90;42.00
15543;DHT22;7873;52.230;12.856;2023-04-15T10:29:53;23.90;41.80
15543;DHT22;7873;52.230;12.856;2023-04-15T10:32:19;23.80;41.90
15543;DHT22;7873;52.230;12.856;2023-04-15T10:34:48;23.80;42.10
15543;DHT22;7873;52.230;12.856;2023-04-15T10:37:19;23.90;41.80
15543;DHT22;7873;52.230;12.856;2023-04-15T10:39:47;23.90;41.60
15543;DHT22;7873;52.230;12.856;2023-04-15T10:42:15;24.00;41.80
15543;DHT22;7873;52.230;12.856;2023-04-15T10:44:43;23.90;41.50
15543;DHT22;7873;52.230;12.856;2023-04-15T10:47:16;23.90;41.50
15543;DHT22;7873;52.230;12.856;2023-04-15T10:49:45;23.90;41.50
15543;DHT22;7873;52.230;12.856;2023-04-15T10:52:14;23.90;41.50
15543;DHT22;7873;52.230;12.856;2023-04-15T10:54:43;23.90;41.70
15543;DHT22;7873;52.230;12.856;2023-04-15T10:57:14;23.80;41.40
15543;DHT22;7873;52.230;12.856;2023-04-15T10:59:59;23.90;41.20
15543;DHT22;7873;52.230;12.856;2023-04-15T11:05:19;23.80;41.30
15543;DHT22;7873;52.230;12.856;2023-04-15T11:07:50;23.80;41.10
15543;DHT22;7873;52.230;12.856;2023-04-15T11:13:20;23.60;41.70
15543;DHT22;7873;52.230;12.856;2023-04-15T11:15:58;23.20;42.60
15543;DHT22;7873;52.230;12.856;2023-04-15T11:18:29;23.40;41.90
15543;DHT22;7873;52.230;12.856;2023-04-15T11:20:58;23.40;41.70
15543;DHT22;7873;52.230;12.856;2023-04-15T11:23:36;23.40;41.50
15543;DHT22;7873;52.230;12.856;2023-04-15T11:26:05;23.40;41.50
15543;DHT22;7873;52.230;12.856;2023-04-15T11:28:36;23.40;41.40
15543;DHT22;7873;52.230;12.856;2023-04-15T11:31:05;23.40;41.30
15543;DHT22;7873;52.230;12.856;2023-04-15T11:33:35;23.50;41.20
15543;DHT22;7873;52.230;12.856;2023-04-15T11:36:02;23.50;41.20
15543;DHT22;7873;52.230;12.856;2023-04-15T11:38:29;23.40;41.10
15543;DHT22;7873;52.230;12.856;2023-04-15T11:40:58;23.50;41.10
15543;DHT22;7873;52.230;12.856;2023-04-15T11:43:25;23.50;41.00
15543;DHT22;7873;52.230;12.856;2023-04-15T11:45:52;23.50;41.00
15543;DHT22;7873;52.230;12.856;2023-04-15T11:48:21;23.60;40.90
15543;DHT22;7873;52.230;12.856;2023-04-15T11:50:52;23.50;40.80
15543;DHT22;7873;52.230;12.856;2023-04-15T11:53:20;23.50;40.90
15543;DHT22;7873;52.230;12.856;2023-04-15T11:55:48;23.40;40.90
15543;DHT22;7873;52.230;12.856;2023-04-15T11:58:17;23.40;41.00
15543;DHT22;7873;52.230;12.856;2023-04-15T12:00:46;23.50;40.90
15543;DHT22;7873;52.230;12.856;2023-04-15T12:03:16;23.40;40.80
15543;DHT22;7873;52.230;12.856;2023-04-15T12:08:49;23.50;40.70
15543;DHT22;7873;52.230;12.856;2023-04-15T12:11:27;23.50;40.70
15543;DHT22;7873;52.230;12.856;2023-04-15T12:14:02;23.50;40.70
15543;DHT22;7873;52.230;12.856;2023-04-15T12:16:31;23.50;40.70
15543;DHT22;7873;52.230;12.856;2023-04-15T12:18:59;23.50;40.70
15543;DHT22;7873;52.230;12.856;2023-04-15T12:21:32;23.50;41.40
15543;DHT22;7873;52.230;12.856;2023-04-15T12:24:00;23.40;40.60
15543;DHT22;7873;52.230;12.856;2023-04-15T12:26:28;23.40;40.70
15543;DHT22;7873;52.230;12.856;2023-04-15T12:29:01;23.40;40.70
15543;DHT22;7873;52.230;12.856;2023-04-15T12:31:28;23.40;40.70
15543;DHT22;7873;52.230;12.856;2023-04-15T12:33:56;23.40;40.70
15543;DHT22;7873;52.230;12.856;2023-04-15T12:36:23;23.40;40.70
15543;DHT22;7873;52.230;12.856;2023-04-15T12:38:50;23.40;40.70
15543;DHT22;7873;52.230;12.856;2023-04-15T12:41:17;23.40;40.70
15543;DHT22;7873;52.230;12.856;2023-04-15T12:43:45;23.40;40.70
15543;DHT22;7873;52.230;12.856;2023-04-15T12:46:13;23.40;40.70
15543;DHT22;7873;52.230;12.856;2023-04-15T12:48:41;23.30;40.60
15543;DHT22;7873;52.230;12.856;2023-04-15T12:51:07;23.30;40.70
15543;DHT22;7873;52.230;12.856;2023-04-15T12:53:34;23.40;40.70
15543;DHT22;7873;52.230;12.856;2023-04-15T12:56:03;23.40;40.60
15543;DHT22;7873;52.230;12.856;2023-04-15T12:58:31;23.40;40.50
15543;DHT22;7873;52.230;12.856;2023-04-15T13:00:58;23.30;40.60
15543;DHT22;7873;52.230;12.856;2023-04-15T13:03:27;23.40;40.50
15543;DHT22;7873;52.230;12.856;2023-04-15T13:05:54;23.40;40.50
15543;DHT22;7873;52.230;12.856;2023-04-15T13:08:22;23.30;40.80
15543;DHT22;7873;52.230;12.856;2023-04-15T13:10:49;23.20;41.30
15543;DHT22;7873;52.230;12.856;2023-04-15T13:13:16;23.10;41.30
15543;DHT22;7873;52.230;12.856;2023-04-15T13:15:42;23.00;41.40
15543;DHT22;7873;52.230;12.856;2023-04-15T13:18:10;22.80;41.90
15543;DHT22;7873;52.230;12.856;2023-04-15T13:20:38;22.80;41.90
15543;DHT22;7873;52.230;12.856;2023-04-15T13:23:06;23.00;41.60
15543;DHT22;7873;52.230;12.856;2023-04-15T13:25:33;23.10;41.20
15543;DHT22;7873;52.230;12.856;2023-04-15T13:27:59;23.30;40.80
15543;DHT22;7873;52.230;12.856;2023-04-15T13:30:26;23.50;40.90
15543;DHT22;7873;52.230;12.856;2023-04-15T13:32:53;23.80;40.60
15543;DHT22;7873;52.230;12.856;2023-04-15T13:35:20;23.90;40.50
15543;DHT22;7873;52.230;12.856;2023-04-15T13:37:48;24.20;40.10
15543;DHT22;7873;52.230;12.856;2023-04-15T13:40:15;24.50;39.80
15543;DHT22;7873;52.230;12.856;2023-04-15T13:42:45;24.80;39.60
15543;DHT22;7873;52.230;12.856;2023-04-15T13:45:12;25.10;39.10
15543;DHT22;7873;52.230;12.856;2023-04-15T13:47:39;25.30;38.70
15543;DHT22;7873;52.230;12.856;2023-04-15T13:50:06;25.60;38.50
15543;DHT22;7873;52.230;12.856;2023-04-15T13:52:33;25.70;38.80
15543;DHT22;7873;52.230;12.856;2023-04-15T13:55:01;25.80;38.00
15543;DHT22;7873;52.230;12.856;2023-04-15T13:57:28;25.70;38.50
15543;DHT22;7873;52.230;12.856;2023-04-15T13:59:55;25.60;39.00
15543;DHT22;7873;52.230;12.856;2023-04-15T14:02:22;25.50;39.40
15543;DHT22;7873;52.230;12.856;2023-04-15T14:04:48;25.60;39.40
15543;DHT22;7873;52.230;12.856;2023-04-15T14:07:15;25.80;38.50
15543;DHT22;7873;52.230;12.856;2023-04-15T14:09:42;26.00;39.30
15543;DHT22;7873;52.230;12.856;2023-04-15T14:12:10;26.40;38.30
15543;DHT22;7873;52.230;12.856;2023-04-15T14:14:37;26.70;37.80
15543;DHT22;7873;52.230;12.856;2023-04-15T14:17:03;26.70;37.80
15543;DHT22;7873;52.230;12.856;2023-04-15T14:19:30;26.80;37.40
15543;DHT22;7873;52.230;12.856;2023-04-15T14:21:57;26.90;37.40
15543;DHT22;7873;52.230;12.856;2023-04-15T14:24:24;27.20;37.50
15543;DHT22;7873;52.230;12.856;2023-04-15T14:26:51;27.50;37.00
15543;DHT22;7873;52.230;12.856;2023-04-15T14:29:19;27.90;36.60
15543;DHT22;7873;52.230;12.856;2023-04-15T14:31:46;28.00;35.90
15543;DHT22;7873;52.230;12.856;2023-04-15T14:34:14;28.10;35.60
15543;DHT22;7873;52.230;12.856;2023-04-15T14:36:41;28.30;35.90
15543;DHT22;7873;52.230;12.856;2023-04-15T14:39:07;28.50;35.60
15543;DHT22;7873;52.230;12.856;2023-04-15T14:41:34;28.70;35.60
15543;DHT22;7873;52.230;12.856;2023-04-15T14:44:01;28.90;35.50
15543;DHT22;7873;52.230;12.856;2023-04-15T14:46:29;28.90;35.90
15543;DHT22;7873;52.230;12.856;2023-04-15T14:48:57;28.60;36.50
15543;DHT22;7873;52.230;12.856;2023-04-15T14:51:24;28.40;36.90
15543;DHT22;7873;52.230;12.856;2023-04-15T14:53:51;28.40;36.40
15543;DHT22;7873;52.230;12.856;2023-04-15T14:56:17;28.40;36.00
15543;DHT22;7873;52.230;12.856;2023-04-15T14:58:44;28.50;35.90
15543;DHT22;7873;52.230;12.856;2023-04-15T15:01:11;28.80;35.60
15543;DHT22;7873;52.230;12.856;2023-04-15T15:03:39;28.90;35.20
15543;DHT22;7873;52.230;12.856;2023-04-15T15:06:06;29.00;35.10
15543;DHT22;7873;52.230;12.856;2023-04-15T15:08:33;29.10;34.80
15543;DHT22;7873;52.230;12.856;2023-04-15T15:11:01;29.30;34.90
15543;DHT22;7873;52.230;12.856;2023-04-15T15:13:27;29.30;34.20
15543;DHT22;7873;52.230;12.856;2023-04-15T15:15:54;29.40;34.20
15543;DHT22;7873;52.230;12.856;2023-04-15T15:18:20;29.50;33.90
15543;DHT22;7873;52.230;12.856;2023-04-15T15:20:51;29.50;34.00
15543;DHT22;7873;52.230;12.856;2023-04-15T15:23:17;29.70;33.50
15543;DHT22;7873;52.230;12.856;2023-04-15T15:25:44;30.00;33.20
15543;DHT22;7873;52.230;12.856;2023-04-15T15:28:12;30.00;33.20
15543;DHT22;7873;52.230;12.856;2023-04-15T15:30:38;30.20;32.70
15543;DHT22;7873;52.230;12.856;2023-04-15T15:33:05;30.30;32.40
15543;DHT22;7873;52.230;12.856;2023-04-15T15:35:32;30.30;32.70
15543;DHT22;7873;52.230;12.856;2023-04-15T15:38:00;30.40;32.40
15543;DHT22;7873;52.230;12.856;2023-04-15T15:40:26;30.60;32.30